createdAt,value
2023-10-09T00:00:31.474Z,57.07
2023-10-09T00:03:17.242Z,58.46
2023-10-09T00:06:03.975Z,57.00
2023-10-09T00:08:52.020Z,56.69
2023-10-09T00:11:43.030Z,57.80
2023-10-09T00:14:27.518Z,56.89
2023-10-09T00:17:22.810Z,57.56
2023-10-09T00:20:18.995Z,57.69
2023-10-09T00:23:03.194Z,57.53
2023-10-09T00:26:08.706Z,57.95
2023-10-09T00:28:53.452Z,57.66
2023-10-09T00:31:38.710Z,56.84
2023-10-09T00:34:23.620Z,56.42
2023-10-09T00:37:12.110Z,56.80
2023-10-09T00:39:58.344Z,56.04
2023-10-09T00:42:42.701Z,57.26
2023-10-09T00:45:33.406Z,57.55
2023-10-09T00:48:24.509Z,57.19
2023-10-09T00:51:17.211Z,56.97
2023-10-09T00:54:08.956Z,56.45
2023-10-09T00:56:59.364Z,57.63
2023-10-09T00:59:47.650Z,57.57
2023-10-09T01:02:38.094Z,58.60
2023-10-09T01:05:22.389Z,58.53
2023-10-09T01:08:17.478Z,58.54
2023-10-09T01:11:11.246Z,58.81
2023-10-09T01:13:57.646Z,60.57
2023-10-09T01:16:44.076Z,59.70
2023-10-09T01:19:29.349Z,60.40
2023-10-09T01:22:16.119Z,60.04
2023-10-09T01:25:07.274Z,59.33
2023-10-09T01:27:52.129Z,59.05
2023-10-09T01:30:42.933Z,58.96
2023-10-09T01:33:28.945Z,59.68
2023-10-09T01:36:16.374Z,60.12
2023-10-09T01:39:03.002Z,60.53
2023-10-09T01:41:49.844Z,61.04
2023-10-09T01:44:36.979Z,60.91
2023-10-09T01:47:22.918Z,60.78
2023-10-09T01:50:19.613Z,59.89
2023-10-09T01:53:04.259Z,60.28
2023-10-09T01:55:48.290Z,60.76
2023-10-09T01:58:33.803Z,60.14
2023-10-09T02:01:18.643Z,58.96
2023-10-09T02:04:10.435Z,57.74
2023-10-09T02:06:54.557Z,57.85
2023-10-09T02:09:46.005Z,58.73
2023-10-09T02:12:34.951Z,58.51
2023-10-09T02:15:41.258Z,59.13
2023-10-09T02:18:41.277Z,59.42
2023-10-09T02:21:34.024Z,60.70
2023-10-09T02:24:43.239Z,59.84
2023-10-09T02:27:47.397Z,58.79
2023-10-09T02:30:35.732Z,59.35
2023-10-09T02:33:28.969Z,58.90
2023-10-09T02:36:14.430Z,59.81
2023-10-09T02:38:59.406Z,58.97
2023-10-09T02:41:50.816Z,59.55
2023-10-09T02:44:40.970Z,61.02
2023-10-09T02:47:32.512Z,60.40
2023-10-09T02:50:29.612Z,59.29
2023-10-09T02:53:19.997Z,58.67
2023-10-09T02:56:14.294Z,58.49
2023-10-09T02:59:06.967Z,58.46
2023-10-09T03:01:54.051Z,58.44
2023-10-09T03:04:40.383Z,56.81
2023-10-09T03:07:24.802Z,56.23
2023-10-09T03:10:12.192Z,55.25
2023-10-09T03:12:56.202Z,53.79
2023-10-09T03:15:42.268Z,54.64
2023-10-09T03:18:26.409Z,54.93
2023-10-09T03:21:12.244Z,55.08
2023-10-09T03:23:57.691Z,55.08
2023-10-09T03:26:41.840Z,54.73
2023-10-09T03:29:28.781Z,53.96
2023-10-09T03:32:12.802Z,54.62
2023-10-09T03:34:56.927Z,53.65
2023-10-09T03:37:42.377Z,53.49
2023-10-09T03:40:26.660Z,52.37
2023-10-09T03:43:12.641Z,51.79
2023-10-09T03:45:58.550Z,50.66
2023-10-09T03:48:44.710Z,50.32
2023-10-09T03:51:29.913Z,50.72
2023-10-09T03:54:17.041Z,50.32
2023-10-09T03:57:01.408Z,50.67
2023-10-09T03:59:45.492Z,50.98
2023-10-09T04:02:30.408Z,50.61
2023-10-09T04:05:14.487Z,51.10
2023-10-09T04:08:00.361Z,51.68
2023-10-09T04:10:54.981Z,51.51
2023-10-09T04:13:41.538Z,51.62
2023-10-09T04:16:52.468Z,51.72
2023-10-09T04:19:49.414Z,51.18
2023-10-09T04:22:40.161Z,50.85
2023-10-09T04:25:28.326Z,51.08
2023-10-09T04:28:21.001Z,50.95
2023-10-09T04:31:07.772Z,50.36
2023-10-09T04:34:20.628Z,49.58
2023-10-09T04:37:21.034Z,49.76
2023-10-09T04:40:14.984Z,49.59
2023-10-09T04:43:00.652Z,48.52
2023-10-09T04:46:03.452Z,48.87
2023-10-09T04:48:48.020Z,48.09
2023-10-09T04:51:37.392Z,48.37
2023-10-09T04:54:40.461Z,49.17
2023-10-09T04:57:26.884Z,48.15
2023-10-09T05:00:23.915Z,49.11
2023-10-09T05:03:12.523Z,48.44
2023-10-09T05:06:22.010Z,48.27
2023-10-09T05:09:16.242Z,48.26
2023-10-09T05:12:16.937Z,48.17
2023-10-09T05:15:10.822Z,47.45
2023-10-09T05:17:57.884Z,47.91
2023-10-09T05:23:45.645Z,46.48
2023-10-09T05:26:38.798Z,46.41
2023-10-09T05:29:36.264Z,46.54
2023-10-09T05:32:29.385Z,45.49
2023-10-09T05:35:17.117Z,45.49
2023-10-09T05:38:16.223Z,45.43
2023-10-09T05:41:22.402Z,45.31
2023-10-09T05:44:32.340Z,44.92
2023-10-09T05:47:30.429Z,43.96
2023-10-09T05:50:35.566Z,44.78
2023-10-09T05:53:40.615Z,44.51
2023-10-09T05:56:43.200Z,44.70
2023-10-09T05:59:40.893Z,44.03
2023-10-09T06:02:48.752Z,44.07
2023-10-09T06:05:43.535Z,44.07
2023-10-09T06:08:48.654Z,43.41
2023-10-09T06:11:43.738Z,43.52
2023-10-09T06:14:47.938Z,43.69
2023-10-09T06:17:44.873Z,43.06
2023-10-09T06:21:08.165Z,41.89
2023-10-09T06:24:11.133Z,41.83
2023-10-09T06:27:25.666Z,41.56
2023-10-09T06:30:25.908Z,40.82
2023-10-09T06:33:21.888Z,40.99
2023-10-09T06:36:09.892Z,40.28
2023-10-09T06:39:13.582Z,39.41
2023-10-09T06:42:10.729Z,39.23
2023-10-09T06:44:56.084Z,40.31
2023-10-09T06:47:42.490Z,39.37
2023-10-09T06:50:27.706Z,38.59
2023-10-09T06:53:29.420Z,38.08
2023-10-09T06:56:24.238Z,37.52
2023-10-09T06:59:17.216Z,37.59
2023-10-09T07:02:18.866Z,38.15
2023-10-09T07:05:14.165Z,37.62
2023-10-09T07:08:17.935Z,37.13
2023-10-09T07:11:22.420Z,36.82
2023-10-09T07:14:08.019Z,36.84
2023-10-09T07:16:58.726Z,36.34
2023-10-09T07:19:58.675Z,35.12
2023-10-09T07:22:53.989Z,35.58
2023-10-09T07:25:56.291Z,36.10
2023-10-09T07:28:47.009Z,35.25
2023-10-09T07:31:41.136Z,35.23
2023-10-09T07:34:44.408Z,35.80
2023-10-09T07:37:32.306Z,34.47
2023-10-09T07:40:19.366Z,33.79
2023-10-09T07:43:06.433Z,34.58
2023-10-09T07:46:17.747Z,34.35
2023-10-09T07:49:03.794Z,33.91
2023-10-09T07:51:49.261Z,33.92
2023-10-09T07:54:34.238Z,33.86
2023-10-09T07:57:19.317Z,33.49
2023-10-09T08:00:13.754Z,34.19
2023-10-09T08:03:01.969Z,35.96
2023-10-09T08:05:46.726Z,34.03
2023-10-09T08:09:03.997Z,33.69
2023-10-09T08:12:15.283Z,33.68
2023-10-09T08:15:14.175Z,33.65
2023-10-09T08:18:00.677Z,33.38
2023-10-09T08:21:13.721Z,33.61
2023-10-09T08:24:06.296Z,34.58
2023-10-09T08:26:52.192Z,33.70
2023-10-09T08:29:35.937Z,33.54
2023-10-09T08:35:30.979Z,34.83
2023-10-09T08:38:15.836Z,32.77
2023-10-09T08:41:17.346Z,32.25
2023-10-09T08:44:05.131Z,34.14
2023-10-09T08:46:50.199Z,32.51
2023-10-09T08:49:35.701Z,31.80
2023-10-09T08:52:19.984Z,31.15
2023-10-09T08:55:07.037Z,31.65
2023-10-09T08:57:53.765Z,31.70
2023-10-09T09:00:38.096Z,33.53
2023-10-09T09:03:22.807Z,31.61
2023-10-09T09:06:07.420Z,31.47
2023-10-09T09:08:56.357Z,32.20
2023-10-09T09:11:49.964Z,32.70
2023-10-09T09:14:41.692Z,32.27
2023-10-09T09:17:30.622Z,32.36
2023-10-09T09:20:24.316Z,31.70
2023-10-09T09:23:13.614Z,32.60
2023-10-09T09:26:02.601Z,32.91
2023-10-09T09:28:56.472Z,31.70
2023-10-09T09:31:54.786Z,30.96
2023-10-09T09:34:49.111Z,30.60
2023-10-09T09:37:51.877Z,30.19
2023-10-09T09:40:42.673Z,31.06
2023-10-09T09:43:30.178Z,30.83
2023-10-09T09:46:16.293Z,30.14
2023-10-09T09:49:02.870Z,31.21
2023-10-09T09:51:48.264Z,29.57
2023-10-09T09:54:37.477Z,30.96
2023-10-09T09:57:27.453Z,32.17
2023-10-09T10:00:30.682Z,31.88
2023-10-09T10:03:19.833Z,31.75
2023-10-09T10:06:11.317Z,32.54
2023-10-09T10:08:55.624Z,32.00
2023-10-09T10:11:46.996Z,31.10
2023-10-09T10:14:54.570Z,29.82
2023-10-09T10:18:18.878Z,29.57
2023-10-09T10:21:17.574Z,31.43
2023-10-09T10:24:07.064Z,30.87
2023-10-09T10:27:29.020Z,31.32
2023-10-09T10:30:38.206Z,30.75
2023-10-09T10:33:23.950Z,30.80
2023-10-09T10:36:08.210Z,30.59
2023-10-09T10:39:06.258Z,31.25
2023-10-09T10:41:57.573Z,31.97
2023-10-09T10:44:46.246Z,31.18
2023-10-09T10:47:35.512Z,31.27
2023-10-09T10:50:36.977Z,31.52
2023-10-09T10:53:21.429Z,30.93
2023-10-09T10:56:20.086Z,31.12
2023-10-09T10:59:24.178Z,31.20
2023-10-09T11:02:24.464Z,31.53
2023-10-09T11:05:24.795Z,31.67
2023-10-09T11:08:12.564Z,31.22
2023-10-09T11:11:17.495Z,31.33
2023-10-09T11:14:15.906Z,31.61
2023-10-09T11:17:04.312Z,31.82
2023-10-09T11:19:49.657Z,31.68
2023-10-09T11:22:37.708Z,31.72
2023-10-09T11:25:21.125Z,31.77
2023-10-09T11:28:29.412Z,30.20
2023-10-09T11:31:17.576Z,30.65
2023-10-09T11:34:02.743Z,33.69
2023-10-09T11:36:50.427Z,35.02
2023-10-09T11:39:35.949Z,32.49
2023-10-09T11:42:36.943Z,30.89
2023-10-09T11:45:30.190Z,31.74
2023-10-09T11:48:25.915Z,29.25
2023-10-09T11:51:20.358Z,30.99
2023-10-09T11:54:04.781Z,31.87
2023-10-09T11:56:48.915Z,31.67
2023-10-09T11:59:39.058Z,29.76
2023-10-09T12:02:25.144Z,30.54
2023-10-09T12:05:10.042Z,30.81
2023-10-09T12:07:56.264Z,31.71
2023-10-09T12:10:41.671Z,31.27
2023-10-09T12:13:26.858Z,30.63
2023-10-09T12:16:11.645Z,30.14
2023-10-09T12:18:57.499Z,31.64
2023-10-09T12:21:44.333Z,30.75
2023-10-09T12:24:30.452Z,30.74
2023-10-09T12:27:14.541Z,30.95
2023-10-09T12:29:59.685Z,29.96
2023-10-09T12:32:43.877Z,31.15
2023-10-09T12:35:35.562Z,33.24
2023-10-09T12:38:24.041Z,32.04
2023-10-09T12:41:19.392Z,32.52
2023-10-09T12:44:03.845Z,33.63
2023-10-09T12:46:53.695Z,32.34
2023-10-09T12:49:39.596Z,32.24
2023-10-09T12:52:31.224Z,32.17
2023-10-09T12:55:24.039Z,32.08
2023-10-09T12:58:08.710Z,32.39
2023-10-09T13:00:52.969Z,33.05
2023-10-09T13:03:39.937Z,32.89
2023-10-09T13:06:26.057Z,33.69
2023-10-09T13:09:12.456Z,33.47
2023-10-09T13:12:00.920Z,33.39
2023-10-09T13:14:45.028Z,33.85
2023-10-09T13:17:29.590Z,34.16
2023-10-09T13:20:15.283Z,34.82
2023-10-09T13:22:59.413Z,36.22
2023-10-09T13:25:45.860Z,35.05
2023-10-09T13:28:30.340Z,35.67
2023-10-09T13:31:15.768Z,35.89
2023-10-09T13:34:00.656Z,35.35
2023-10-09T13:36:54.377Z,35.46
2023-10-09T13:39:40.972Z,35.93
2023-10-09T13:42:27.275Z,36.52
2023-10-09T13:45:17.071Z,37.09
2023-10-09T13:48:05.597Z,37.63
2023-10-09T13:50:49.630Z,37.35
2023-10-09T13:53:33.624Z,36.89
2023-10-09T13:56:20.532Z,35.99
2023-10-09T13:59:11.986Z,36.78
2023-10-09T14:01:57.092Z,36.07
2023-10-09T14:04:41.148Z,36.75
2023-10-09T14:07:26.450Z,36.49
2023-10-09T14:10:18.624Z,36.24
2023-10-09T14:13:13.362Z,37.23
2023-10-09T14:16:01.192Z,41.13
2023-10-09T14:18:45.468Z,37.07
2023-10-09T14:21:31.181Z,38.73
2023-10-09T14:24:19.710Z,37.61
2023-10-09T14:27:07.650Z,38.27
2023-10-09T14:29:52.836Z,38.08
2023-10-09T14:32:45.440Z,37.26
2023-10-09T14:35:31.630Z,38.03
2023-10-09T14:38:16.518Z,38.51
2023-10-09T14:41:01.350Z,39.52
2023-10-09T14:43:45.707Z,39.98
2023-10-09T14:46:30.646Z,40.09
2023-10-09T14:49:16.233Z,40.08
2023-10-09T14:52:00.457Z,40.49
2023-10-09T14:54:45.802Z,40.79
2023-10-09T14:57:34.892Z,40.69
2023-10-09T15:00:24.896Z,40.56
2023-10-09T15:03:13.443Z,42.19
2023-10-09T15:06:01.193Z,42.33
2023-10-09T15:08:45.380Z,42.72
2023-10-09T15:11:29.784Z,43.23
2023-10-09T15:14:15.298Z,42.49
2023-10-09T15:16:59.573Z,42.98
2023-10-09T15:19:43.710Z,43.99
2023-10-09T15:22:36.642Z,44.14
2023-10-09T15:25:21.012Z,44.32
2023-10-09T15:28:05.354Z,44.15
2023-10-09T15:30:50.542Z,45.04
2023-10-09T15:33:36.517Z,45.54
2023-10-09T15:36:21.872Z,46.60
2023-10-09T15:39:09.450Z,46.53
2023-10-09T15:41:53.404Z,46.32
2023-10-09T15:44:38.587Z,46.61
2023-10-09T15:47:23.905Z,48.10
2023-10-09T15:50:13.083Z,47.35
2023-10-09T15:52:57.616Z,47.05
2023-10-09T15:55:42.964Z,47.32
2023-10-09T15:58:26.980Z,47.71
2023-10-09T16:01:14.104Z,48.93
2023-10-09T16:03:58.252Z,49.26
2023-10-09T16:06:42.650Z,50.01
2023-10-09T16:09:26.826Z,49.74
2023-10-09T16:12:14.281Z,49.85
2023-10-09T16:14:58.404Z,51.18
2023-10-09T16:17:43.444Z,51.23
2023-10-09T16:20:27.969Z,51.33
2023-10-09T16:23:13.960Z,51.48
2023-10-09T16:25:58.550Z,51.71
2023-10-09T16:28:44.214Z,51.77
2023-10-09T16:31:28.415Z,52.53
2023-10-09T16:34:15.235Z,52.56
2023-10-09T16:36:59.568Z,52.89
2023-10-09T16:39:43.567Z,53.39
2023-10-09T16:42:27.488Z,53.66
2023-10-09T16:45:17.298Z,53.49
2023-10-09T16:48:05.102Z,54.06
2023-10-09T16:50:50.397Z,54.03
2023-10-09T16:53:37.852Z,53.64
2023-10-09T16:56:22.214Z,54.62
2023-10-09T16:59:13.962Z,54.25
2023-10-09T17:01:59.370Z,54.48
2023-10-09T17:04:45.570Z,54.70
2023-10-09T17:07:29.764Z,55.10
2023-10-09T17:10:20.986Z,54.79
2023-10-09T17:13:08.308Z,54.92
2023-10-09T17:15:54.532Z,54.93
2023-10-09T17:18:40.457Z,55.89
2023-10-09T17:21:25.214Z,55.86
2023-10-09T17:24:12.419Z,56.50
2023-10-09T17:26:57.099Z,56.33
2023-10-09T17:29:41.505Z,56.46
2023-10-09T17:32:26.458Z,56.57
2023-10-09T17:35:13.366Z,56.84
2023-10-09T17:37:58.045Z,57.12
2023-10-09T17:40:49.530Z,57.32
2023-10-09T17:43:34.070Z,57.91
2023-10-09T17:46:19.534Z,57.25
2023-10-09T17:49:06.302Z,57.31
2023-10-09T17:51:53.383Z,57.08
2023-10-09T17:54:37.573Z,56.77
2023-10-09T17:57:22.665Z,56.76
2023-10-09T18:00:10.362Z,56.64
2023-10-09T18:02:57.931Z,56.54
2023-10-09T18:05:42.609Z,56.88
2023-10-09T18:08:29.436Z,57.07
2023-10-09T18:11:15.905Z,57.40
2023-10-09T18:14:06.465Z,57.91
2023-10-09T18:16:51.015Z,58.47
2023-10-09T18:19:39.745Z,58.55
2023-10-09T18:22:25.552Z,59.21
2023-10-09T18:25:12.904Z,58.82
2023-10-09T18:27:57.868Z,59.02
2023-10-09T18:30:44.451Z,59.14
2023-10-09T18:33:31.645Z,58.96
2023-10-09T18:36:21.593Z,58.92
2023-10-09T18:39:09.685Z,58.85
2023-10-09T18:41:57.663Z,59.59
2023-10-09T18:44:43.165Z,59.95
2023-10-09T18:47:28.032Z,60.93
2023-10-09T18:50:13.925Z,62.01
2023-10-09T18:52:58.661Z,62.63
2023-10-09T18:55:43.327Z,64.07
2023-10-09T18:58:31.696Z,63.72
2023-10-09T19:01:20.909Z,64.59
2023-10-09T19:04:09.659Z,66.06
2023-10-09T19:06:56.210Z,66.75
2023-10-09T19:09:41.889Z,66.36
2023-10-09T19:12:26.410Z,66.56
2023-10-09T19:15:15.034Z,66.86
2023-10-09T19:17:59.440Z,66.30
2023-10-09T19:20:44.575Z,68.13
2023-10-09T19:23:29.225Z,67.85
2023-10-09T19:26:16.003Z,67.98
2023-10-09T19:29:01.066Z,67.89
2023-10-09T19:31:49.388Z,67.11
2023-10-09T19:34:36.026Z,67.48
2023-10-09T19:37:23.052Z,67.51
2023-10-09T19:40:11.353Z,67.44
2023-10-09T19:42:55.890Z,68.02
2023-10-09T19:45:42.099Z,66.81
2023-10-09T19:48:28.162Z,67.46
2023-10-09T19:51:13.928Z,67.55
2023-10-09T19:53:59.373Z,67.26
2023-10-09T19:56:46.423Z,66.92
2023-10-09T19:59:30.985Z,66.78
2023-10-09T20:02:16.085Z,66.00
2023-10-09T20:05:03.066Z,65.77
2023-10-09T20:07:48.513Z,64.56
2023-10-09T20:10:32.814Z,64.63
2023-10-09T20:13:17.129Z,66.01
2023-10-09T20:16:01.442Z,65.19
2023-10-09T20:18:45.850Z,65.56
2023-10-09T20:21:32.669Z,64.63
2023-10-09T20:24:16.786Z,64.07
2023-10-09T20:27:00.866Z,63.98
2023-10-09T20:29:45.118Z,63.65
2023-10-09T20:32:29.080Z,63.54
2023-10-09T20:35:13.987Z,63.75
2023-10-09T20:38:02.811Z,63.64
2023-10-09T20:40:46.988Z,63.96
2023-10-09T20:43:30.956Z,63.51
2023-10-09T20:46:17.210Z,63.61
2023-10-09T20:49:01.673Z,63.33
2023-10-09T20:51:56.571Z,64.21
2023-10-09T20:54:43.123Z,63.54
2023-10-09T20:57:27.074Z,62.83
2023-10-09T21:00:20.196Z,62.47
2023-10-09T21:03:07.302Z,62.39
2023-10-09T21:05:53.385Z,62.95
2023-10-09T21:08:37.212Z,62.08
2023-10-09T21:11:22.751Z,62.83
2023-10-09T21:14:07.424Z,63.20
2023-10-09T21:16:51.662Z,63.23
2023-10-09T21:19:35.679Z,63.35
2023-10-09T21:22:19.618Z,63.27
2023-10-09T21:25:04.557Z,63.91
2023-10-09T21:27:50.426Z,63.38
2023-10-09T21:30:35.036Z,63.09
2023-10-09T21:33:19.014Z,62.69
2023-10-09T21:36:04.654Z,63.13
2023-10-09T21:38:48.869Z,62.79
2023-10-09T21:41:32.995Z,62.34
2023-10-09T21:44:18.321Z,62.50
2023-10-09T21:47:02.623Z,62.24
2023-10-09T21:49:46.829Z,62.97
2023-10-09T21:52:31.187Z,64.13
2023-10-09T21:55:16.912Z,63.79
2023-10-09T21:58:01.818Z,63.00
2023-10-09T22:00:48.426Z,62.46
2023-10-09T22:03:33.235Z,62.11
2023-10-09T22:06:17.197Z,61.90
2023-10-09T22:09:01.513Z,62.23
2023-10-09T22:11:45.861Z,62.21
2023-10-09T22:14:30.175Z,62.10
2023-10-09T22:17:15.747Z,61.71
2023-10-09T22:19:59.936Z,61.51
2023-10-09T22:22:45.414Z,61.76
2023-10-09T22:25:31.317Z,61.84
2023-10-09T22:28:16.034Z,61.61
2023-10-09T22:31:04.786Z,61.57
2023-10-09T22:33:55.596Z,61.47
2023-10-09T22:39:35.185Z,61.67
2023-10-09T22:42:19.281Z,61.41
2023-10-09T22:45:03.682Z,61.09
2023-10-09T22:47:52.738Z,61.04
2023-10-09T22:50:38.462Z,60.77
2023-10-09T22:53:24.191Z,61.24
2023-10-09T22:56:14.464Z,61.12
2023-10-09T22:58:58.941Z,61.10
2023-10-09T23:01:45.850Z,61.40
2023-10-09T23:04:39.341Z,61.11
2023-10-09T23:07:25.488Z,61.09
2023-10-09T23:10:17.218Z,61.05
2023-10-09T23:13:15.861Z,63.25
2023-10-09T23:16:09.213Z,62.82
2023-10-09T23:19:07.216Z,62.07
2023-10-09T23:22:13.983Z,61.76
2023-10-09T23:25:09.730Z,62.87
2023-10-09T23:27:58.412Z,63.65
2023-10-09T23:30:44.540Z,64.26
2023-10-09T23:33:31.418Z,64.44
2023-10-09T23:36:15.470Z,64.45
2023-10-09T23:39:13.852Z,64.85
2023-10-09T23:42:00.129Z,63.75
2023-10-09T23:44:44.671Z,63.53
2023-10-09T23:47:33.215Z,63.34
2023-10-09T23:50:17.681Z,64.06
2023-10-09T23:53:03.580Z,64.52
2023-10-09T23:55:52.966Z,64.34
2023-10-09T23:58:39.328Z,63.92
